sensor_id;sensor_type;location;lat;lon;timestamp;temperature;humidity
1468;DHT22;727;48.892;9.544;2023-01-09T00:01:24;7.50;99.90
1468;DHT22;727;48.892;9.544;2023-01-09T00:03:53;7.40;99.90
1468;DHT22;727;48.892;9.544;2023-01-09T00:06:20;7.40;99.90
1468;DHT22;727;48.892;9.544;2023-01-09T00:08:47;7.40;99.90
1468;DHT22;727;48.892;9.544;2023-01-09T00:11:13;7.30;99.90
1468;DHT22;727;48.892;9.544;2023-01-09T00:13:40;7.30;99.90
1468;DHT22;727;48.892;9.544;2023-01-09T00:16:08;7.30;99.90
1468;DHT22;727;48.892;9.544;2023-01-09T00:18:35;7.30;99.90
1468;DHT22;727;48.892;9.544;2023-01-09T00:21:06;7.30;99.90
1468;DHT22;727;48.892;9.544;2023-01-09T00:23:34;7.30;99.90
1468;DHT22;727;48.892;9.544;2023-01-09T00:26:02;7.30;99.90
1468;DHT22;727;48.892;9.544;2023-01-09T00:28:29;7.30;99.90
1468;DHT22;727;48.892;9.544;2023-01-09T00:30:56;7.20;99.90
1468;DHT22;727;48.892;9.544;2023-01-09T00:33:26;7.20;99.90
1468;DHT22;727;48.892;9.544;2023-01-09T00:35:54;7.20;99.90
1468;DHT22;727;48.892;9.544;2023-01-09T00:38:22;7.20;99.90
1468;DHT22;727;48.892;9.544;2023-01-09T00:40:49;7.30;99.90
1468;DHT22;727;48.892;9.544;2023-01-09T00:43:16;7.30;99.90
1468;DHT22;727;48.892;9.544;2023-01-09T00:45:43;7.30;99.90
1468;DHT22;727;48.892;9.544;2023-01-09T00:48:13;7.30;99.90
1468;DHT22;727;48.892;9.544;2023-01-09T00:50:41;7.30;99.90
1468;DHT22;727;48.892;9.544;2023-01-09T00:53:12;7.30;99.90
1468;DHT22;727;48.892;9.544;2023-01-09T00:55:42;7.20;99.90
1468;DHT22;727;48.892;9.544;2023-01-09T00:58:09;7.30;99.90
1468;DHT22;727;48.892;9.544;2023-01-09T01:00:36;7.20;99.90
1468;DHT22;727;48.892;9.544;2023-01-09T01:03:03;7.20;99.90
1468;DHT22;727;48.892;9.544;2023-01-09T01:05:29;7.20;99.90
1468;DHT22;727;48.892;9.544;2023-01-09T01:08:16;7.20;99.90
1468;DHT22;727;48.892;9.544;2023-01-09T01:10:47;7.20;99.90
1468;DHT22;727;48.892;9.544;2023-01-09T01:13:14;7.20;99.90
1468;DHT22;727;48.892;9.544;2023-01-09T01:15:43;7.20;99.90
1468;DHT22;727;48.892;9.544;2023-01-09T01:18:10;7.20;99.90
1468;DHT22;727;48.892;9.544;2023-01-09T01:20:39;7.10;99.90
1468;DHT22;727;48.892;9.544;2023-01-09T01:23:06;7.10;99.90
1468;DHT22;727;48.892;9.544;2023-01-09T01:25:35;7.20;99.90
1468;DHT22;727;48.892;9.544;2023-01-09T01:28:04;7.10;99.90
1468;DHT22;727;48.892;9.544;2023-01-09T01:30:31;7.20;99.90
1468;DHT22;727;48.892;9.544;2023-01-09T01:32:58;7.20;99.90
1468;DHT22;727;48.892;9.544;2023-01-09T01:35:25;7.20;99.90
1468;DHT22;727;48.892;9.544;2023-01-09T01:37:52;7.20;99.90
1468;DHT22;727;48.892;9.544;2023-01-09T01:40:19;7.20;99.90
1468;DHT22;727;48.892;9.544;2023-01-09T01:42:46;7.20;99.90
1468;DHT22;727;48.892;9.544;2023-01-09T01:45:16;7.20;99.90
1468;DHT22;727;48.892;9.544;2023-01-09T01:47:55;7.20;99.90
1468;DHT22;727;48.892;9.544;2023-01-09T01:50:30;7.20;99.90
1468;DHT22;727;48.892;9.544;2023-01-09T01:53:02;7.20;99.90
1468;DHT22;727;48.892;9.544;2023-01-09T01:55:33;7.10;99.90
1468;DHT22;727;48.892;9.544;2023-01-09T01:58:03;7.10;99.90
1468;DHT22;727;48.892;9.544;2023-01-09T02:00:34;7.10;99.90
1468;DHT22;727;48.892;9.544;2023-01-09T02:03:02;7.10;99.90
1468;DHT22;727;48.892;9.544;2023-01-09T02:05:29;7.10;99.90
1468;DHT22;727;48.892;9.544;2023-01-09T02:07:56;7.10;99.90
1468;DHT22;727;48.892;9.544;2023-01-09T02:10:23;7.10;99.90
1468;DHT22;727;48.892;9.544;2023-01-09T02:12:50;7.10;99.90
1468;DHT22;727;48.892;9.544;2023-01-09T02:15:18;7.10;99.90
1468;DHT22;727;48.892;9.544;2023-01-09T02:20:50;7.20;99.90
1468;DHT22;727;48.892;9.544;2023-01-09T02:26:56;7.20;99.90
1468;DHT22;727;48.892;9.544;2023-01-09T02:32:35;7.20;99.90
1468;DHT22;727;48.892;9.544;2023-01-09T02:35:15;7.20;99.90
1468;DHT22;727;48.892;9.544;2023-01-09T02:37:46;7.20;99.90
1468;DHT22;727;48.892;9.544;2023-01-09T02:40:21;7.20;99.90
1468;DHT22;727;48.892;9.544;2023-01-09T02:42:49;7.20;99.90
1468;DHT22;727;48.892;9.544;2023-01-09T02:45:17;7.20;99.90
1468;DHT22;727;48.892;9.544;2023-01-09T02:47:46;7.20;99.90
1468;DHT22;727;48.892;9.544;2023-01-09T02:50:16;7.20;99.90
1468;DHT22;727;48.892;9.544;2023-01-09T02:53:02;7.20;99.90
1468;DHT22;727;48.892;9.544;2023-01-09T02:55:50;7.20;99.90
1468;DHT22;727;48.892;9.544;2023-01-09T02:58:24;7.20;99.90
1468;DHT22;727;48.892;9.544;2023-01-09T03:00:59;7.20;99.90
1468;DHT22;727;48.892;9.544;2023-01-09T03:03:33;7.10;99.90
1468;DHT22;727;48.892;9.544;2023-01-09T03:06:07;7.10;99.90
1468;DHT22;727;48.892;9.544;2023-01-09T03:08:39;7.10;99.90
1468;DHT22;727;48.892;9.544;2023-01-09T03:11:06;7.10;99.90
1468;DHT22;727;48.892;9.544;2023-01-09T03:13:37;7.10;99.90
1468;DHT22;727;48.892;9.544;2023-01-09T03:16:08;7.10;99.90
1468;DHT22;727;48.892;9.544;2023-01-09T03:18:38;7.10;99.90
1468;DHT22;727;48.892;9.544;2023-01-09T03:21:06;7.10;99.90
1468;DHT22;727;48.892;9.544;2023-01-09T03:23:49;7.10;99.90
1468;DHT22;727;48.892;9.544;2023-01-09T03:26:16;7.10;99.90
1468;DHT22;727;48.892;9.544;2023-01-09T03:28:44;7.00;99.90
1468;DHT22;727;48.892;9.544;2023-01-09T03:31:11;7.10;99.90
1468;DHT22;727;48.892;9.544;2023-01-09T03:33:39;7.10;99.90
1468;DHT22;727;48.892;9.544;2023-01-09T03:36:07;7.10;99.90
1468;DHT22;727;48.892;9.544;2023-01-09T03:38:34;7.10;99.90
1468;DHT22;727;48.892;9.544;2023-01-09T03:41:01;7.10;99.90
1468;DHT22;727;48.892;9.544;2023-01-09T03:43:27;7.10;99.90
1468;DHT22;727;48.892;9.544;2023-01-09T03:45:54;7.10;99.90
1468;DHT22;727;48.892;9.544;2023-01-09T03:48:21;7.10;99.90
1468;DHT22;727;48.892;9.544;2023-01-09T03:50:50;7.10;99.90
1468;DHT22;727;48.892;9.544;2023-01-09T03:53:18;7.20;99.90
1468;DHT22;727;48.892;9.544;2023-01-09T03:55:45;7.20;99.90
1468;DHT22;727;48.892;9.544;2023-01-09T03:58:12;7.30;99.90
1468;DHT22;727;48.892;9.544;2023-01-09T04:00:39;7.30;99.90
1468;DHT22;727;48.892;9.544;2023-01-09T04:03:07;7.40;99.90
1468;DHT22;727;48.892;9.544;2023-01-09T04:05:34;7.40;99.90
1468;DHT22;727;48.892;9.544;2023-01-09T04:08:02;7.40;99.90
1468;DHT22;727;48.892;9.544;2023-01-09T04:10:29;7.50;99.90
1468;DHT22;727;48.892;9.544;2023-01-09T04:12:56;7.50;99.90
1468;DHT22;727;48.892;9.544;2023-01-09T04:15:23;7.50;99.90
1468;DHT22;727;48.892;9.544;2023-01-09T04:17:50;7.60;99.90
1468;DHT22;727;48.892;9.544;2023-01-09T04:20:17;7.70;99.90
1468;DHT22;727;48.892;9.544;2023-01-09T04:22:44;7.70;99.90
1468;DHT22;727;48.892;9.544;2023-01-09T04:25:12;7.80;99.90
1468;DHT22;727;48.892;9.544;2023-01-09T04:27:39;7.80;99.90
1468;DHT22;727;48.892;9.544;2023-01-09T04:30:07;7.80;99.90
1468;DHT22;727;48.892;9.544;2023-01-09T04:32:33;7.70;99.90
1468;DHT22;727;48.892;9.544;2023-01-09T04:35:00;7.70;99.90
1468;DHT22;727;48.892;9.544;2023-01-09T04:37:27;7.70;99.90
1468;DHT22;727;48.892;9.544;2023-01-09T04:39:53;7.60;99.90
1468;DHT22;727;48.892;9.544;2023-01-09T04:42:22;7.60;99.90
1468;DHT22;727;48.892;9.544;2023-01-09T04:44:49;7.50;99.90
1468;DHT22;727;48.892;9.544;2023-01-09T04:47:18;7.40;99.90
1468;DHT22;727;48.892;9.544;2023-01-09T04:49:45;7.30;99.90
1468;DHT22;727;48.892;9.544;2023-01-09T04:52:11;7.20;99.90
1468;DHT22;727;48.892;9.544;2023-01-09T04:54:38;7.20;99.90
1468;DHT22;727;48.892;9.544;2023-01-09T04:57:05;7.20;99.90
1468;DHT22;727;48.892;9.544;2023-01-09T04:59:33;7.10;99.90
1468;DHT22;727;48.892;9.544;2023-01-09T05:02:00;7.00;99.90
1468;DHT22;727;48.892;9.544;2023-01-09T05:04:27;7.00;99.90
1468;DHT22;727;48.892;9.544;2023-01-09T05:06:54;7.00;99.90
1468;DHT22;727;48.892;9.544;2023-01-09T05:09:21;6.90;99.90
1468;DHT22;727;48.892;9.544;2023-01-09T05:11:48;6.90;99.90
1468;DHT22;727;48.892;9.544;2023-01-09T05:14:15;6.80;99.90
1468;DHT22;727;48.892;9.544;2023-01-09T05:16:43;6.70;99.90
1468;DHT22;727;48.892;9.544;2023-01-09T05:19:10;6.70;99.90
1468;DHT22;727;48.892;9.544;2023-01-09T05:21:37;6.70;99.90
1468;DHT22;727;48.892;9.544;2023-01-09T05:24:04;6.70;99.90
1468;DHT22;727;48.892;9.544;2023-01-09T05:26:31;6.70;99.90
1468;DHT22;727;48.892;9.544;2023-01-09T05:28:57;6.80;99.90
1468;DHT22;727;48.892;9.544;2023-01-09T05:31:25;6.70;99.90
1468;DHT22;727;48.892;9.544;2023-01-09T05:33:53;6.70;99.90
1468;DHT22;727;48.892;9.544;2023-01-09T05:36:20;6.60;99.90
1468;DHT22;727;48.892;9.544;2023-01-09T05:38:47;6.60;99.90
1468;DHT22;727;48.892;9.544;2023-01-09T05:41:13;6.60;99.90
1468;DHT22;727;48.892;9.544;2023-01-09T05:43:40;6.70;99.90
1468;DHT22;727;48.892;9.544;2023-01-09T05:46:07;6.60;99.90
1468;DHT22;727;48.892;9.544;2023-01-09T05:48:33;6.60;99.90
1468;DHT22;727;48.892;9.544;2023-01-09T05:51:02;6.50;99.90
1468;DHT22;727;48.892;9.544;2023-01-09T05:53:28;6.50;99.90
1468;DHT22;727;48.892;9.544;2023-01-09T05:55:55;6.50;99.90
1468;DHT22;727;48.892;9.544;2023-01-09T05:58:22;6.60;99.90
1468;DHT22;727;48.892;9.544;2023-01-09T06:00:48;6.50;99.90
1468;DHT22;727;48.892;9.544;2023-01-09T06:03:17;6.40;99.90
1468;DHT22;727;48.892;9.544;2023-01-09T06:05:44;6.40;99.90
1468;DHT22;727;48.892;9.544;2023-01-09T06:08:12;6.30;99.90
1468;DHT22;727;48.892;9.544;2023-01-09T06:10:39;6.30;99.90
1468;DHT22;727;48.892;9.544;2023-01-09T06:13:05;6.20;99.90
1468;DHT22;727;48.892;9.544;2023-01-09T06:15:32;6.20;99.90
1468;DHT22;727;48.892;9.544;2023-01-09T06:17:59;6.10;99.90
1468;DHT22;727;48.892;9.544;2023-01-09T06:20:25;6.00;99.90
1468;DHT22;727;48.892;9.544;2023-01-09T06:22:52;5.90;99.90
1468;DHT22;727;48.892;9.544;2023-01-09T06:25:20;5.90;99.90
1468;DHT22;727;48.892;9.544;2023-01-09T06:27:48;5.80;99.90
1468;DHT22;727;48.892;9.544;2023-01-09T06:30:16;5.70;99.90
1468;DHT22;727;48.892;9.544;2023-01-09T06:32:44;5.70;99.90
1468;DHT22;727;48.892;9.544;2023-01-09T06:35:10;5.60;99.90
1468;DHT22;727;48.892;9.544;2023-01-09T06:37:37;5.60;99.90
1468;DHT22;727;48.892;9.544;2023-01-09T06:40:05;5.50;99.90
1468;DHT22;727;48.892;9.544;2023-01-09T06:42:33;5.50;99.90
1468;DHT22;727;48.892;9.544;2023-01-09T06:45:00;5.50;99.90
1468;DHT22;727;48.892;9.544;2023-01-09T06:47:26;5.40;99.90
1468;DHT22;727;48.892;9.544;2023-01-09T06:49:53;5.30;99.90
1468;DHT22;727;48.892;9.544;2023-01-09T06:52:21;5.40;99.90
1468;DHT22;727;48.892;9.544;2023-01-09T06:54:48;5.30;99.90
1468;DHT22;727;48.892;9.544;2023-01-09T06:57:15;5.30;99.90
1468;DHT22;727;48.892;9.544;2023-01-09T06:59:43;5.30;99.90
1468;DHT22;727;48.892;9.544;2023-01-09T07:02:15;5.30;99.90
1468;DHT22;727;48.892;9.544;2023-01-09T07:04:42;5.30;99.90
1468;DHT22;727;48.892;9.544;2023-01-09T07:07:09;5.30;99.90
1468;DHT22;727;48.892;9.544;2023-01-09T07:09:36;5.40;99.90
1468;DHT22;727;48.892;9.544;2023-01-09T07:12:03;5.40;99.90
1468;DHT22;727;48.892;9.544;2023-01-09T07:14:29;5.40;99.90
1468;DHT22;727;48.892;9.544;2023-01-09T07:16:58;5.40;99.90
1468;DHT22;727;48.892;9.544;2023-01-09T07:19:24;5.50;99.90
1468;DHT22;727;48.892;9.544;2023-01-09T07:21:51;5.60;99.90
1468;DHT22;727;48.892;9.544;2023-01-09T07:24:18;5.80;99.90
1468;DHT22;727;48.892;9.544;2023-01-09T07:26:44;5.90;99.90
1468;DHT22;727;48.892;9.544;2023-01-09T07:29:11;6.00;99.90
1468;DHT22;727;48.892;9.544;2023-01-09T07:31:38;6.10;99.90
1468;DHT22;727;48.892;9.544;2023-01-09T07:34:06;6.30;99.90
1468;DHT22;727;48.892;9.544;2023-01-09T07:36:32;6.30;99.90
1468;DHT22;727;48.892;9.544;2023-01-09T07:38:59;6.30;99.90
1468;DHT22;727;48.892;9.544;2023-01-09T07:41:26;6.40;99.90
1468;DHT22;727;48.892;9.544;2023-01-09T07:43:52;6.50;99.90
1468;DHT22;727;48.892;9.544;2023-01-09T07:46:19;6.50;99.90
1468;DHT22;727;48.892;9.544;2023-01-09T07:48:46;6.50;99.90
1468;DHT22;727;48.892;9.544;2023-01-09T07:51:14;6.40;99.90
1468;DHT22;727;48.892;9.544;2023-01-09T07:53:41;6.50;99.90
1468;DHT22;727;48.892;9.544;2023-01-09T07:56:07;6.50;99.90
1468;DHT22;727;48.892;9.544;2023-01-09T07:58:34;6.50;99.90
1468;DHT22;727;48.892;9.544;2023-01-09T08:01:01;6.50;99.90
1468;DHT22;727;48.892;9.544;2023-01-09T08:03:27;6.50;99.90
1468;DHT22;727;48.892;9.544;2023-01-09T08:05:54;6.50;99.90
1468;DHT22;727;48.892;9.544;2023-01-09T08:08:22;6.60;99.90
1468;DHT22;727;48.892;9.544;2023-01-09T08:10:49;6.60;99.90
1468;DHT22;727;48.892;9.544;2023-01-09T08:13:16;6.60;99.90
1468;DHT22;727;48.892;9.544;2023-01-09T08:15:43;6.60;99.90
1468;DHT22;727;48.892;9.544;2023-01-09T08:18:09;6.60;99.90
1468;DHT22;727;48.892;9.544;2023-01-09T08:20:36;6.80;99.90
1468;DHT22;727;48.892;9.544;2023-01-09T08:23:03;6.90;99.90
1468;DHT22;727;48.892;9.544;2023-01-09T08:25:31;7.10;99.90
1468;DHT22;727;48.892;9.544;2023-01-09T08:27:58;7.40;99.90
1468;DHT22;727;48.892;9.544;2023-01-09T08:30:24;7.90;99.90
1468;DHT22;727;48.892;9.544;2023-01-09T08:32:52;9.50;99.90
1468;DHT22;727;48.892;9.544;2023-01-09T08:35:19;11.60;99.90
1468;DHT22;727;48.892;9.544;2023-01-09T08:37:47;13.30;99.20
1468;DHT22;727;48.892;9.544;2023-01-09T08:40:14;14.20;93.50
1468;DHT22;727;48.892;9.544;2023-01-09T08:42:43;14.10;91.70
1468;DHT22;727;48.892;9.544;2023-01-09T08:45:28;13.40;91.10
1468;DHT22;727;48.892;9.544;2023-01-09T08:48:12;12.50;92.00
1468;DHT22;727;48.892;9.544;2023-01-09T08:50:39;11.70;93.30
1468;DHT22;727;48.892;9.544;2023-01-09T08:53:06;11.50;94.00
1468;DHT22;727;48.892;9.544;2023-01-09T08:55:32;11.20;94.40
1468;DHT22;727;48.892;9.544;2023-01-09T08:58:01;11.60;94.30
1468;DHT22;727;48.892;9.544;2023-01-09T09:00:28;12.90;93.60
1468;DHT22;727;48.892;9.544;2023-01-09T09:02:56;14.40;90.50
1468;DHT22;727;48.892;9.544;2023-01-09T09:05:25;15.00;85.90
1468;DHT22;727;48.892;9.544;2023-01-09T09:07:53;14.40;84.40
1468;DHT22;727;48.892;9.544;2023-01-09T09:10:21;14.30;85.80
1468;DHT22;727;48.892;9.544;2023-01-09T09:12:50;14.70;84.20
1468;DHT22;727;48.892;9.544;2023-01-09T09:15:18;14.60;83.60
1468;DHT22;727;48.892;9.544;2023-01-09T09:17:48;15.10;81.70
1468;DHT22;727;48.892;9.544;2023-01-09T09:20:15;15.90;80.30
1468;DHT22;727;48.892;9.544;2023-01-09T09:22:44;16.70;76.80
1468;DHT22;727;48.892;9.544;2023-01-09T09:25:11;16.70;73.90
1468;DHT22;727;48.892;9.544;2023-01-09T09:27:38;16.70;74.10
1468;DHT22;727;48.892;9.544;2023-01-09T09:30:06;17.10;72.80
1468;DHT22;727;48.892;9.544;2023-01-09T09:32:35;17.30;71.80
1468;DHT22;727;48.892;9.544;2023-01-09T09:35:02;17.00;71.20
1468;DHT22;727;48.892;9.544;2023-01-09T09:37:28;17.30;71.50
1468;DHT22;727;48.892;9.544;2023-01-09T09:39:55;17.50;69.80
1468;DHT22;727;48.892;9.544;2023-01-09T09:45:40;17.90;68.70
1468;DHT22;727;48.892;9.544;2023-01-09T09:48:21;17.00;68.80
1468;DHT22;727;48.892;9.544;2023-01-09T09:51:16;17.00;68.60
1468;DHT22;727;48.892;9.544;2023-01-09T09:53:48;15.40;71.30
1468;DHT22;727;48.892;9.544;2023-01-09T09:56:20;13.30;76.60
1468;DHT22;727;48.892;9.544;2023-01-09T09:58:50;12.40;81.60
1468;DHT22;727;48.892;9.544;2023-01-09T10:01:20;11.20;85.60
1468;DHT22;727;48.892;9.544;2023-01-09T10:03:51;10.60;89.70
1468;DHT22;727;48.892;9.544;2023-01-09T10:06:24;10.50;91.40
1468;DHT22;727;48.892;9.544;2023-01-09T10:08:55;10.40;91.90
1468;DHT22;727;48.892;9.544;2023-01-09T10:11:30;10.30;92.60
1468;DHT22;727;48.892;9.544;2023-01-09T10:13:58;10.20;92.90
1468;DHT22;727;48.892;9.544;2023-01-09T10:16:42;10.10;93.40
1468;DHT22;727;48.892;9.544;2023-01-09T10:19:24;10.00;94.00
1468;DHT22;727;48.892;9.544;2023-01-09T10:22:04;10.00;94.40
1468;DHT22;727;48.892;9.544;2023-01-09T10:24:43;9.90;95.20
1468;DHT22;727;48.892;9.544;2023-01-09T10:27:21;9.70;95.10
1468;DHT22;727;48.892;9.544;2023-01-09T10:29:58;9.60;95.70
1468;DHT22;727;48.892;9.544;2023-01-09T10:32:44;9.60;95.90
1468;DHT22;727;48.892;9.544;2023-01-09T10:35:36;9.70;95.90
1468;DHT22;727;48.892;9.544;2023-01-09T10:38:07;10.00;95.00
1468;DHT22;727;48.892;9.544;2023-01-09T10:40:40;10.20;94.40
1468;DHT22;727;48.892;9.544;2023-01-09T10:43:14;10.10;94.40
1468;DHT22;727;48.892;9.544;2023-01-09T10:45:47;10.00;94.50
1468;DHT22;727;48.892;9.544;2023-01-09T10:48:22;9.70;95.10
1468;DHT22;727;48.892;9.544;2023-01-09T10:50:51;9.50;95.60
1468;DHT22;727;48.892;9.544;2023-01-09T10:53:22;9.50;96.00
1468;DHT22;727;48.892;9.544;2023-01-09T10:55:53;9.60;96.20
1468;DHT22;727;48.892;9.544;2023-01-09T10:58:21;9.70;96.00
1468;DHT22;727;48.892;9.544;2023-01-09T11:00:49;9.70;96.30
1468;DHT22;727;48.892;9.544;2023-01-09T11:03:18;9.80;96.10
1468;DHT22;727;48.892;9.544;2023-01-09T11:05:51;10.10;95.10
1468;DHT22;727;48.892;9.544;2023-01-09T11:08:23;10.70;94.80
1468;DHT22;727;48.892;9.544;2023-01-09T11:10:53;11.60;92.60
1468;DHT22;727;48.892;9.544;2023-01-09T11:13:21;12.10;91.80
1468;DHT22;727;48.892;9.544;2023-01-09T11:16:04;12.30;90.40
1468;DHT22;727;48.892;9.544;2023-01-09T11:18:32;12.50;89.50
1468;DHT22;727;48.892;9.544;2023-01-09T11:21:26;12.40;89.10
1468;DHT22;727;48.892;9.544;2023-01-09T11:23:54;11.70;90.50
1468;DHT22;727;48.892;9.544;2023-01-09T11:26:23;13.20;89.70
1468;DHT22;727;48.892;9.544;2023-01-09T11:29:06;13.50;84.60
1468;DHT22;727;48.892;9.544;2023-01-09T11:31:35;12.80;86.40
1468;DHT22;727;48.892;9.544;2023-01-09T11:34:02;11.90;88.40
1468;DHT22;727;48.892;9.544;2023-01-09T11:36:30;11.30;90.80
1468;DHT22;727;48.892;9.544;2023-01-09T11:38:59;11.00;91.00
1468;DHT22;727;48.892;9.544;2023-01-09T11:41:29;10.60;91.60
1468;DHT22;727;48.892;9.544;2023-01-09T11:43:57;10.40;92.60
1468;DHT22;727;48.892;9.544;2023-01-09T11:46:32;10.20;93.30
1468;DHT22;727;48.892;9.544;2023-01-09T11:49:00;9.90;93.70
1468;DHT22;727;48.892;9.544;2023-01-09T11:51:31;9.80;94.10
1468;DHT22;727;48.892;9.544;2023-01-09T11:54:19;9.70;94.50
1468;DHT22;727;48.892;9.544;2023-01-09T11:56:50;9.70;94.80
1468;DHT22;727;48.892;9.544;2023-01-09T11:59:19;9.70;94.70
1468;DHT22;727;48.892;9.544;2023-01-09T12:04:44;9.80;95.00
1468;DHT22;727;48.892;9.544;2023-01-09T12:07:30;10.00;94.70
1468;DHT22;727;48.892;9.544;2023-01-09T12:10:06;10.20;94.70
1468;DHT22;727;48.892;9.544;2023-01-09T12:12:44;10.30;94.10
1468;DHT22;727;48.892;9.544;2023-01-09T12:15:20;10.40;94.20
1468;DHT22;727;48.892;9.544;2023-01-09T12:18:15;10.50;93.70
1468;DHT22;727;48.892;9.544;2023-01-09T12:21:09;10.40;93.60
1468;DHT22;727;48.892;9.544;2023-01-09T12:23:53;10.20;93.60
1468;DHT22;727;48.892;9.544;2023-01-09T12:26:40;9.90;94.80
1468;DHT22;727;48.892;9.544;2023-01-09T12:32:35;9.70;94.70
1468;DHT22;727;48.892;9.544;2023-01-09T12:35:16;9.50;95.10
1468;DHT22;727;48.892;9.544;2023-01-09T12:38:02;9.50;95.20
1468;DHT22;727;48.892;9.544;2023-01-09T12:40:45;9.70;95.50
1468;DHT22;727;48.892;9.544;2023-01-09T12:43:20;9.80;95.10
1468;DHT22;727;48.892;9.544;2023-01-09T12:45:58;9.70;94.70
1468;DHT22;727;48.892;9.544;2023-01-09T12:49:04;9.60;94.90
1468;DHT22;727;48.892;9.544;2023-01-09T12:51:36;9.50;95.30
1468;DHT22;727;48.892;9.544;2023-01-09T12:54:09;9.50;96.30
1468;DHT22;727;48.892;9.544;2023-01-09T12:56:41;9.40;97.60
1468;DHT22;727;48.892;9.544;2023-01-09T12:59:20;9.30;98.70
1468;DHT22;727;48.892;9.544;2023-01-09T13:02:00;9.10;99.50
1468;DHT22;727;48.892;9.544;2023-01-09T13:04:31;8.90;99.90
1468;DHT22;727;48.892;9.544;2023-01-09T13:07:02;8.80;99.90
1468;DHT22;727;48.892;9.544;2023-01-09T13:09:37;8.70;99.90
1468;DHT22;727;48.892;9.544;2023-01-09T13:12:11;8.50;99.90
1468;DHT22;727;48.892;9.544;2023-01-09T13:14:45;8.40;99.90
1468;DHT22;727;48.892;9.544;2023-01-09T13:17:17;8.40;99.90
1468;DHT22;727;48.892;9.544;2023-01-09T13:19:45;8.40;99.90
1468;DHT22;727;48.892;9.544;2023-01-09T13:22:12;8.40;99.90
1468;DHT22;727;48.892;9.544;2023-01-09T13:25:06;8.40;99.90
1468;DHT22;727;48.892;9.544;2023-01-09T13:27:41;8.50;99.90
1468;DHT22;727;48.892;9.544;2023-01-09T13:30:19;8.70;99.90
1468;DHT22;727;48.892;9.544;2023-01-09T13:32:56;8.70;99.90
1468;DHT22;727;48.892;9.544;2023-01-09T13:35:28;8.70;99.90
1468;DHT22;727;48.892;9.544;2023-01-09T13:37:55;8.60;99.90
1468;DHT22;727;48.892;9.544;2023-01-09T13:40:26;8.50;99.90
1468;DHT22;727;48.892;9.544;2023-01-09T13:42:57;8.50;99.90
1468;DHT22;727;48.892;9.544;2023-01-09T13:45:26;8.30;99.90
1468;DHT22;727;48.892;9.544;2023-01-09T13:48:16;8.20;99.90
1468;DHT22;727;48.892;9.544;2023-01-09T13:50:45;8.10;99.90
1468;DHT22;727;48.892;9.544;2023-01-09T13:53:41;8.30;99.90
1468;DHT22;727;48.892;9.544;2023-01-09T13:56:08;8.40;99.90
1468;DHT22;727;48.892;9.544;2023-01-09T13:58:58;8.30;99.90
1468;DHT22;727;48.892;9.544;2023-01-09T14:01:41;8.20;99.90
1468;DHT22;727;48.892;9.544;2023-01-09T14:04:40;8.10;99.90
1468;DHT22;727;48.892;9.544;2023-01-09T14:07:29;8.00;99.90
1468;DHT22;727;48.892;9.544;2023-01-09T14:09:58;7.90;99.90
1468;DHT22;727;48.892;9.544;2023-01-09T14:12:27;7.80;99.90
1468;DHT22;727;48.892;9.544;2023-01-09T14:14:58;7.80;99.90
1468;DHT22;727;48.892;9.544;2023-01-09T14:17:31;7.80;99.90
1468;DHT22;727;48.892;9.544;2023-01-09T14:20:02;7.90;99.90
1468;DHT22;727;48.892;9.544;2023-01-09T14:22:31;7.90;99.90
1468;DHT22;727;48.892;9.544;2023-01-09T14:25:05;7.90;99.90
1468;DHT22;727;48.892;9.544;2023-01-09T14:28:18;7.90;99.90
1468;DHT22;727;48.892;9.544;2023-01-09T14:31:08;7.70;99.90
1468;DHT22;727;48.892;9.544;2023-01-09T14:33:35;7.60;99.90
1468;DHT22;727;48.892;9.544;2023-01-09T14:36:11;7.50;99.90
1468;DHT22;727;48.892;9.544;2023-01-09T14:38:42;7.40;99.90
1468;DHT22;727;48.892;9.544;2023-01-09T14:41:18;7.40;99.90
1468;DHT22;727;48.892;9.544;2023-01-09T14:43:53;7.30;99.90
1468;DHT22;727;48.892;9.544;2023-01-09T14:46:23;7.30;99.90
1468;DHT22;727;48.892;9.544;2023-01-09T14:48:58;7.30;99.90
1468;DHT22;727;48.892;9.544;2023-01-09T14:51:27;7.30;99.90
1468;DHT22;727;48.892;9.544;2023-01-09T14:53:56;7.50;99.90
1468;DHT22;727;48.892;9.544;2023-01-09T14:56:27;7.60;99.90
1468;DHT22;727;48.892;9.544;2023-01-09T14:59:03;7.70;99.90
1468;DHT22;727;48.892;9.544;2023-01-09T15:01:32;7.70;99.90
1468;DHT22;727;48.892;9.544;2023-01-09T15:04:02;7.60;99.90
1468;DHT22;727;48.892;9.544;2023-01-09T15:06:33;7.60;99.90
1468;DHT22;727;48.892;9.544;2023-01-09T15:09:06;7.50;99.90
1468;DHT22;727;48.892;9.544;2023-01-09T15:11:36;7.50;99.90
1468;DHT22;727;48.892;9.544;2023-01-09T15:14:05;7.40;99.90
1468;DHT22;727;48.892;9.544;2023-01-09T15:16:36;7.30;99.90
1468;DHT22;727;48.892;9.544;2023-01-09T15:19:05;7.30;99.90
1468;DHT22;727;48.892;9.544;2023-01-09T15:21:33;7.20;99.90
1468;DHT22;727;48.892;9.544;2023-01-09T15:24:19;7.20;99.90
1468;DHT22;727;48.892;9.544;2023-01-09T15:26:51;7.10;99.90
1468;DHT22;727;48.892;9.544;2023-01-09T15:29:18;7.00;99.90
1468;DHT22;727;48.892;9.544;2023-01-09T15:31:49;6.90;99.90
1468;DHT22;727;48.892;9.544;2023-01-09T15:34:20;6.80;99.90
1468;DHT22;727;48.892;9.544;2023-01-09T15:36:47;6.80;99.90
1468;DHT22;727;48.892;9.544;2023-01-09T15:39:19;6.70;99.90
1468;DHT22;727;48.892;9.544;2023-01-09T15:41:47;6.70;99.90
1468;DHT22;727;48.892;9.544;2023-01-09T15:44:45;6.70;99.90
1468;DHT22;727;48.892;9.544;2023-01-09T15:47:16;6.60;99.90
1468;DHT22;727;48.892;9.544;2023-01-09T15:49:45;6.60;99.90
1468;DHT22;727;48.892;9.544;2023-01-09T15:52:13;6.60;99.90
1468;DHT22;727;48.892;9.544;2023-01-09T15:54:42;6.60;99.90
1468;DHT22;727;48.892;9.544;2023-01-09T15:57:27;6.60;99.90
1468;DHT22;727;48.892;9.544;2023-01-09T15:59:56;6.50;99.90
1468;DHT22;727;48.892;9.544;2023-01-09T16:02:25;6.50;99.90
1468;DHT22;727;48.892;9.544;2023-01-09T16:05:13;6.60;99.90
1468;DHT22;727;48.892;9.544;2023-01-09T16:07:44;6.50;99.90
1468;DHT22;727;48.892;9.544;2023-01-09T16:10:21;6.30;99.90
1468;DHT22;727;48.892;9.544;2023-01-09T16:12:51;6.10;99.90
1468;DHT22;727;48.892;9.544;2023-01-09T16:15:21;6.10;99.90
1468;DHT22;727;48.892;9.544;2023-01-09T16:18:05;6.00;99.90
1468;DHT22;727;48.892;9.544;2023-01-09T16:20:32;6.00;99.90
1468;DHT22;727;48.892;9.544;2023-01-09T16:22:59;6.00;99.90
1468;DHT22;727;48.892;9.544;2023-01-09T16:25:29;6.10;99.90
1468;DHT22;727;48.892;9.544;2023-01-09T16:28:08;6.00;99.90
1468;DHT22;727;48.892;9.544;2023-01-09T16:30:36;6.00;99.90
1468;DHT22;727;48.892;9.544;2023-01-09T16:33:19;5.90;99.90
1468;DHT22;727;48.892;9.544;2023-01-09T16:35:46;5.90;99.90
1468;DHT22;727;48.892;9.544;2023-01-09T16:38:13;5.90;99.90
1468;DHT22;727;48.892;9.544;2023-01-09T16:40:59;6.00;99.90
1468;DHT22;727;48.892;9.544;2023-01-09T16:43:48;5.90;99.90
1468;DHT22;727;48.892;9.544;2023-01-09T16:46:16;5.80;99.90
1468;DHT22;727;48.892;9.544;2023-01-09T16:48:46;5.80;99.90
1468;DHT22;727;48.892;9.544;2023-01-09T16:51:15;5.80;99.90
1468;DHT22;727;48.892;9.544;2023-01-09T16:53:42;5.70;99.90
1468;DHT22;727;48.892;9.544;2023-01-09T16:56:13;5.60;99.90
1468;DHT22;727;48.892;9.544;2023-01-09T16:58:40;5.60;99.90
1468;DHT22;727;48.892;9.544;2023-01-09T17:01:07;5.60;99.90
1468;DHT22;727;48.892;9.544;2023-01-09T17:03:38;5.60;99.90
1468;DHT22;727;48.892;9.544;2023-01-09T17:06:06;5.60;99.90
1468;DHT22;727;48.892;9.544;2023-01-09T17:08:35;5.60;99.90
1468;DHT22;727;48.892;9.544;2023-01-09T17:11:03;5.60;99.90
1468;DHT22;727;48.892;9.544;2023-01-09T17:13:29;5.60;99.90
1468;DHT22;727;48.892;9.544;2023-01-09T17:15:57;5.60;99.90